createdAt,value
2023-02-14T00:00:54.747Z,40.72
2023-02-14T00:03:21.466Z,40.80
2023-02-14T00:05:48.222Z,39.63
2023-02-14T00:08:16.149Z,38.42
2023-02-14T00:10:42.870Z,40.50
2023-02-14T00:13:09.577Z,40.08
2023-02-14T00:15:36.294Z,38.70
2023-02-14T00:18:03.487Z,38.38
2023-02-14T00:20:30.207Z,40.13
2023-02-14T00:22:57.181Z,39.20
2023-02-14T00:25:23.868Z,39.00
2023-02-14T00:27:50.645Z,40.03
2023-02-14T00:30:17.462Z,39.40
2023-02-14T00:32:44.385Z,37.65
2023-02-14T00:35:11.623Z,39.58
2023-02-14T00:37:38.427Z,40.22
2023-02-14T00:40:07.194Z,39.25
2023-02-14T00:42:34.240Z,40.60
2023-02-14T00:45:01.115Z,40.10
2023-02-14T00:47:27.872Z,37.97
2023-02-14T00:49:54.580Z,37.55
2023-02-14T00:52:21.376Z,36.67
2023-02-14T00:54:48.069Z,38.92
2023-02-14T00:57:14.819Z,38.40
2023-02-14T00:59:41.560Z,39.03
2023-02-14T01:02:08.336Z,39.92
2023-02-14T01:04:36.512Z,37.55
2023-02-14T01:07:03.379Z,36.72
2023-02-14T01:09:30.064Z,39.22
2023-02-14T01:11:56.838Z,37.97
2023-02-14T01:14:23.790Z,37.75
2023-02-14T01:16:50.520Z,40.08
2023-02-14T01:19:17.335Z,38.90
2023-02-14T01:21:44.301Z,37.35
2023-02-14T01:24:12.752Z,38.92
2023-02-14T01:26:39.732Z,39.15
2023-02-14T01:29:06.612Z,39.58
2023-02-14T01:31:35.129Z,38.80
2023-02-14T01:34:02.860Z,39.08
2023-02-14T01:36:33.741Z,40.30
2023-02-14T01:39:03.958Z,36.97
2023-02-14T01:41:33.166Z,36.97
2023-02-14T01:44:03.119Z,37.55
2023-02-14T01:46:33.101Z,38.75
2023-02-14T01:49:10.802Z,36.90
2023-02-14T01:51:48.812Z,37.78
2023-02-14T01:54:17.534Z,38.75
2023-02-14T01:56:48.440Z,38.42
2023-02-14T01:59:20.782Z,38.25
2023-02-14T02:01:50.340Z,38.92
2023-02-14T02:04:23.776Z,39.45
2023-02-14T02:06:55.877Z,36.47
2023-02-14T02:09:42.334Z,38.78
2023-02-14T02:12:09.276Z,39.58
2023-02-14T02:14:36.664Z,38.08
2023-02-14T02:17:25.172Z,40.33
2023-02-14T02:20:06.479Z,38.92
2023-02-14T02:22:38.920Z,38.15
2023-02-14T02:25:23.609Z,38.85
2023-02-14T02:28:18.301Z,39.58
2023-02-14T02:31:11.043Z,37.35
2023-02-14T02:34:10.905Z,36.22
2023-02-14T02:36:46.285Z,37.05
2023-02-14T02:39:32.716Z,38.97
2023-02-14T02:42:14.446Z,39.25
2023-02-14T02:44:50.945Z,38.78
2023-02-14T02:47:20.604Z,37.97
2023-02-14T02:50:09.284Z,38.03
2023-02-14T02:53:07.738Z,38.45
2023-02-14T02:56:12.696Z,37.70
2023-02-14T02:58:53.739Z,37.95
2023-02-14T03:01:41.653Z,38.33
2023-02-14T03:04:30.454Z,38.55
2023-02-14T03:06:58.980Z,37.95
2023-02-14T03:09:28.658Z,40.13
2023-02-14T03:12:31.361Z,38.10
2023-02-14T03:15:17.025Z,37.72
2023-02-14T03:18:03.231Z,37.17
2023-02-14T03:20:52.387Z,37.00
2023-02-14T03:23:29.332Z,39.10
2023-02-14T03:26:08.176Z,37.92
2023-02-14T03:28:47.748Z,37.58
2023-02-14T03:31:40.710Z,37.83
2023-02-14T03:34:19.398Z,38.35
2023-02-14T03:37:11.369Z,38.88
2023-02-14T03:39:45.918Z,38.28
2023-02-14T03:42:21.439Z,42.75
2023-02-14T03:47:21.330Z,37.17
2023-02-14T03:49:56.596Z,38.35
2023-02-14T03:52:26.680Z,38.13
2023-02-14T03:54:56.680Z,39.15
2023-02-14T03:57:32.513Z,40.83
2023-02-14T03:59:59.681Z,37.35
2023-02-14T04:02:35.804Z,38.45
2023-02-14T04:05:07.348Z,37.55
2023-02-14T04:07:48.807Z,37.65
2023-02-14T04:10:16.944Z,37.88
2023-02-14T04:12:43.786Z,39.70
2023-02-14T04:15:11.513Z,39.20
2023-02-14T04:17:56.964Z,39.13
2023-02-14T04:20:23.807Z,40.40
2023-02-14T04:22:51.716Z,37.92
2023-02-14T04:25:19.960Z,37.50
2023-02-14T04:27:46.799Z,37.85
2023-02-14T04:30:14.970Z,41.25
2023-02-14T04:32:41.807Z,40.53
2023-02-14T04:35:08.753Z,39.05
2023-02-14T04:37:35.572Z,40.90
2023-02-14T04:40:02.332Z,39.58
2023-02-14T04:42:29.428Z,41.20
2023-02-14T04:44:56.246Z,42.20
2023-02-14T04:47:23.041Z,40.83
2023-02-14T04:49:49.861Z,39.92
2023-02-14T04:52:16.614Z,41.15
2023-02-14T04:54:44.254Z,38.70
2023-02-14T04:57:10.979Z,39.63
2023-02-14T04:59:37.661Z,42.33
2023-02-14T05:02:04.462Z,41.42
2023-02-14T05:04:31.493Z,41.78
2023-02-14T05:06:58.562Z,40.90
2023-02-14T05:09:25.193Z,41.00
2023-02-14T05:11:52.189Z,39.53
2023-02-14T05:14:18.850Z,40.80
2023-02-14T05:16:45.547Z,41.08
2023-02-14T05:19:12.402Z,40.45
2023-02-14T05:21:39.125Z,39.85
2023-02-14T05:24:06.142Z,40.20
2023-02-14T05:26:33.212Z,40.13
2023-02-14T05:28:59.875Z,37.90
2023-02-14T05:31:27.016Z,39.92
2023-02-14T05:33:53.899Z,39.85
2023-02-14T05:36:20.713Z,39.97
2023-02-14T05:38:47.424Z,41.22
2023-02-14T05:41:14.181Z,42.58
2023-02-14T05:43:40.986Z,38.50
2023-02-14T05:46:07.733Z,40.65
2023-02-14T05:48:34.878Z,38.88
2023-02-14T05:51:09.487Z,39.25
2023-02-14T05:53:36.777Z,40.50
2023-02-14T05:56:03.757Z,39.05
2023-02-14T05:58:30.971Z,40.53
2023-02-14T06:00:59.030Z,40.85
2023-02-14T06:03:26.241Z,40.03
2023-02-14T06:05:53.000Z,40.15
2023-02-14T06:08:19.864Z,38.55
2023-02-14T06:10:46.793Z,39.78
2023-02-14T06:13:13.586Z,38.10
2023-02-14T06:15:40.383Z,39.95
2023-02-14T06:18:07.487Z,39.85
2023-02-14T06:20:34.309Z,40.25
2023-02-14T06:23:02.116Z,39.42
2023-02-14T06:25:28.962Z,39.80
2023-02-14T06:27:57.422Z,40.42
2023-02-14T06:30:24.947Z,39.58
2023-02-14T06:32:52.024Z,40.50
2023-02-14T06:35:18.888Z,39.47
2023-02-14T06:37:46.046Z,38.15
2023-02-14T06:40:13.543Z,39.58
2023-02-14T06:42:40.449Z,38.70
2023-02-14T06:45:07.679Z,40.40
2023-02-14T06:47:35.233Z,40.13
2023-02-14T06:50:04.765Z,40.25
2023-02-14T06:52:32.863Z,37.40
2023-02-14T06:54:59.632Z,38.65
2023-02-14T06:57:26.332Z,40.65
2023-02-14T06:59:53.082Z,39.75
2023-02-14T07:02:20.973Z,42.30
2023-02-14T07:04:48.482Z,40.30
2023-02-14T07:07:15.257Z,40.55
2023-02-14T07:09:41.935Z,37.72
2023-02-14T07:12:09.410Z,40.35
2023-02-14T07:14:36.474Z,38.42
2023-02-14T07:17:03.262Z,39.95
2023-02-14T07:19:29.932Z,39.08
2023-02-14T07:21:56.577Z,38.42
2023-02-14T07:24:23.299Z,38.35
2023-02-14T07:26:50.059Z,39.83
2023-02-14T07:29:16.856Z,40.00
2023-02-14T07:31:43.734Z,38.78
2023-02-14T07:34:10.604Z,37.25
2023-02-14T07:36:38.966Z,38.00
2023-02-14T07:39:05.988Z,39.28
2023-02-14T07:41:32.720Z,38.80
2023-02-14T07:43:59.660Z,36.88
2023-02-14T07:46:26.492Z,39.92
2023-02-14T07:48:53.186Z,38.70
2023-02-14T07:51:19.998Z,37.67
2023-02-14T07:53:47.071Z,37.63
2023-02-14T07:56:13.824Z,37.35
2023-02-14T07:58:40.697Z,38.40
2023-02-14T08:01:07.433Z,37.35
2023-02-14T08:03:34.155Z,38.30
2023-02-14T08:06:00.928Z,41.40
2023-02-14T08:08:29.826Z,38.92
2023-02-14T08:10:57.114Z,38.47
2023-02-14T08:13:24.164Z,38.83
2023-02-14T08:16:06.266Z,39.80
2023-02-14T08:18:36.588Z,39.30
2023-02-14T08:21:04.321Z,39.63
2023-02-14T08:23:31.306Z,38.92
2023-02-14T08:25:58.375Z,38.35
2023-02-14T08:28:26.394Z,40.78
2023-02-14T08:30:53.940Z,40.53
2023-02-14T08:33:21.269Z,40.63
2023-02-14T08:35:48.301Z,40.60
2023-02-14T08:38:15.189Z,42.30
2023-02-14T08:40:42.064Z,42.00
2023-02-14T08:43:09.604Z,43.08
2023-02-14T08:45:37.220Z,41.85
2023-02-14T08:48:06.653Z,42.75
2023-02-14T08:50:33.965Z,43.38
2023-02-14T08:53:00.775Z,42.95
2023-02-14T08:55:27.805Z,46.10
2023-02-14T08:57:58.109Z,40.90
2023-02-14T09:00:25.069Z,44.67
2023-02-14T09:02:53.350Z,45.70
2023-02-14T09:05:23.245Z,44.97
2023-02-14T09:07:50.794Z,46.00
2023-02-14T09:10:18.877Z,45.00
2023-02-14T09:12:45.885Z,48.88
2023-02-14T09:15:12.933Z,47.22
2023-02-14T09:17:39.808Z,46.22
2023-02-14T09:20:08.926Z,45.58
2023-02-14T09:22:35.709Z,44.92
2023-02-14T09:25:02.747Z,44.80
2023-02-14T09:27:30.194Z,46.35
2023-02-14T09:29:56.859Z,44.38
2023-02-14T09:32:23.718Z,44.10
2023-02-14T09:35:08.861Z,44.15
2023-02-14T09:37:54.463Z,44.07
2023-02-14T09:40:21.883Z,42.33
2023-02-14T09:42:53.642Z,43.35
2023-02-14T09:45:26.914Z,41.92
2023-02-14T09:48:23.840Z,41.20
2023-02-14T09:50:55.888Z,39.47
2023-02-14T09:53:33.881Z,38.60
2023-02-14T09:56:03.748Z,36.97
2023-02-14T09:58:39.337Z,34.13
2023-02-14T10:01:22.250Z,32.35
2023-02-14T10:04:01.411Z,32.05
2023-02-14T10:06:46.294Z,31.80
2023-02-14T10:09:12.968Z,31.52
2023-02-14T10:11:43.782Z,31.00
2023-02-14T10:14:12.796Z,32.95
2023-02-14T10:16:46.177Z,31.92
2023-02-14T10:19:27.470Z,33.03
2023-02-14T10:22:02.454Z,31.95
2023-02-14T10:24:53.919Z,32.30
2023-02-14T10:27:34.947Z,31.98
2023-02-14T10:30:03.482Z,31.05
2023-02-14T10:32:45.140Z,32.38
2023-02-14T10:35:36.854Z,31.35
2023-02-14T10:38:18.492Z,30.90
2023-02-14T10:41:19.144Z,33.00
2023-02-14T10:44:03.670Z,32.75
2023-02-14T10:46:41.154Z,34.05
2023-02-14T10:49:48.678Z,34.42
2023-02-14T10:52:40.810Z,32.95
2023-02-14T10:55:31.964Z,34.63
2023-02-14T10:58:01.585Z,35.08
2023-02-14T11:00:38.494Z,31.83
2023-02-14T11:03:09.496Z,32.65
2023-02-14T11:05:46.210Z,31.50
2023-02-14T11:08:37.958Z,34.70
2023-02-14T11:11:16.560Z,35.38
2023-02-14T11:13:44.164Z,33.38
2023-02-14T11:16:18.318Z,33.00
2023-02-14T11:18:45.057Z,32.63
2023-02-14T11:21:15.028Z,33.22
2023-02-14T11:23:44.941Z,33.83
2023-02-14T11:26:22.098Z,33.67
2023-02-14T11:28:53.687Z,32.70
2023-02-14T11:31:38.806Z,32.22
2023-02-14T11:34:26.178Z,35.03
2023-02-14T11:36:53.669Z,33.42
2023-02-14T11:39:40.655Z,33.75
2023-02-14T11:42:10.894Z,35.13
2023-02-14T11:44:43.912Z,33.78
2023-02-14T11:47:42.915Z,35.97
2023-02-14T11:50:24.642Z,33.75
2023-02-14T11:52:54.739Z,34.15
2023-02-14T11:55:28.084Z,34.53
2023-02-14T11:57:55.558Z,33.75
2023-02-14T12:00:23.516Z,37.17
2023-02-14T12:02:51.458Z,36.00
2023-02-14T12:05:24.127Z,36.33
2023-02-14T12:07:54.093Z,35.40
2023-02-14T12:10:33.154Z,34.92
2023-02-14T12:13:08.766Z,36.00
2023-02-14T12:15:43.143Z,35.53
2023-02-14T12:18:21.952Z,36.63
2023-02-14T12:20:57.060Z,36.42
2023-02-14T12:23:31.803Z,37.28
2023-02-14T12:26:36.586Z,35.55
2023-02-14T12:29:29.419Z,34.95
2023-02-14T12:32:01.536Z,35.42
2023-02-14T12:34:28.557Z,36.17
2023-02-14T12:37:10.698Z,37.08
2023-02-14T12:40:08.546Z,36.33
2023-02-14T12:42:35.349Z,35.10
2023-02-14T12:45:12.791Z,36.63
2023-02-14T12:47:45.456Z,35.80
2023-02-14T12:50:30.326Z,38.40
2023-02-14T12:53:18.727Z,34.60
2023-02-14T12:56:11.939Z,37.03
2023-02-14T12:59:04.437Z,32.55
2023-02-14T13:01:40.311Z,36.45
2023-02-14T13:04:25.917Z,35.40
2023-02-14T13:07:38.044Z,34.53
2023-02-14T13:10:40.429Z,36.03
2023-02-14T13:13:53.087Z,37.65
2023-02-14T13:16:56.002Z,36.53
2023-02-14T13:20:10.213Z,37.45
2023-02-14T13:22:37.433Z,39.60
2023-02-14T13:25:31.623Z,39.13
2023-02-14T13:28:01.718Z,36.38
2023-02-14T13:30:36.926Z,37.75
2023-02-14T13:33:14.840Z,39.47
2023-02-14T13:35:42.251Z,38.38
2023-02-14T13:38:15.417Z,38.83
2023-02-14T13:40:43.089Z,39.13
2023-02-14T13:43:09.868Z,39.80
2023-02-14T13:45:37.661Z,39.65
2023-02-14T13:48:21.513Z,38.67
2023-02-14T13:51:03.825Z,39.80
2023-02-14T13:53:43.724Z,40.28
2023-02-14T13:56:15.277Z,41.55
2023-02-14T13:58:55.073Z,40.25
2023-02-14T14:01:36.969Z,38.13
2023-02-14T14:04:28.819Z,41.03
2023-02-14T14:07:23.359Z,39.38
2023-02-14T14:09:49.981Z,40.60
2023-02-14T14:12:28.759Z,38.95
2023-02-14T14:15:08.087Z,39.50
2023-02-14T14:17:41.949Z,38.50
2023-02-14T14:20:20.642Z,41.78
2023-02-14T14:22:56.651Z,39.63
2023-02-14T14:25:37.246Z,40.70
2023-02-14T14:28:24.407Z,40.67
2023-02-14T14:30:51.656Z,39.92
2023-02-14T14:33:32.475Z,39.10
2023-02-14T14:36:10.083Z,41.58
2023-02-14T14:38:48.446Z,40.03
2023-02-14T14:41:15.254Z,40.03
2023-02-14T14:43:42.265Z,41.53
2023-02-14T14:46:12.698Z,40.35
2023-02-14T14:48:45.382Z,40.42
2023-02-14T14:51:30.650Z,38.40
2023-02-14T14:54:00.663Z,38.38
2023-02-14T14:56:31.173Z,38.90
2023-02-14T14:59:15.231Z,39.50
2023-02-14T15:01:44.068Z,39.45
2023-02-14T15:04:20.653Z,38.22
2023-02-14T15:06:48.402Z,38.30
2023-02-14T15:09:29.487Z,38.30
2023-02-14T15:12:17.061Z,35.33
2023-02-14T15:14:46.347Z,37.70
2023-02-14T15:17:29.204Z,36.42
2023-02-14T15:20:00.822Z,36.22
2023-02-14T15:22:32.864Z,35.67
2023-02-14T15:24:59.938Z,35.95
2023-02-14T15:27:28.401Z,35.38
2023-02-14T15:29:56.963Z,34.47
2023-02-14T15:32:25.883Z,36.17
2023-02-14T15:34:54.073Z,34.55
2023-02-14T15:37:22.042Z,37.92
2023-02-14T15:39:52.475Z,34.45
2023-02-14T15:42:22.646Z,36.00
2023-02-14T15:44:49.417Z,35.65
2023-02-14T15:47:16.810Z,34.88
2023-02-14T15:49:46.561Z,35.95
2023-02-14T15:52:16.194Z,35.97
2023-02-14T15:54:47.664Z,37.28
2023-02-14T15:57:25.429Z,36.30
2023-02-14T15:59:52.558Z,35.50
2023-02-14T16:02:30.447Z,35.60
2023-02-14T16:05:08.507Z,34.83
2023-02-14T16:07:35.417Z,37.83
2023-02-14T16:10:25.096Z,35.83
2023-02-14T16:13:20.438Z,35.50
2023-02-14T16:16:04.800Z,35.90
2023-02-14T16:18:49.895Z,35.40
2023-02-14T16:21:27.620Z,35.70
2023-02-14T16:24:06.829Z,34.72
2023-02-14T16:26:46.846Z,35.10
2023-02-14T16:29:16.189Z,34.78
2023-02-14T16:32:24.054Z,34.17
2023-02-14T16:34:41.620Z,33.78
2023-02-14T16:37:37.637Z,34.40
2023-02-14T16:40:13.249Z,35.78
2023-02-14T16:42:41.100Z,34.78
2023-02-14T16:45:14.153Z,35.83
2023-02-14T16:47:40.881Z,33.78
2023-02-14T16:50:08.158Z,34.47
2023-02-14T16:52:35.362Z,34.08
2023-02-14T16:55:02.824Z,34.63
2023-02-14T16:57:41.574Z,34.10
2023-02-14T17:00:09.583Z,33.00
2023-02-14T17:02:36.953Z,34.58
2023-02-14T17:05:04.191Z,33.22
2023-02-14T17:07:33.127Z,34.75
2023-02-14T17:10:05.300Z,32.35
2023-02-14T17:12:36.380Z,33.88
2023-02-14T17:15:08.308Z,33.22
2023-02-14T17:17:37.394Z,35.10
2023-02-14T17:20:05.780Z,30.88
2023-02-14T17:22:34.261Z,33.92
2023-02-14T17:25:01.058Z,33.60
2023-02-14T17:27:27.700Z,34.85
2023-02-14T17:29:54.661Z,33.75
2023-02-14T17:32:21.394Z,32.50
2023-02-14T17:34:49.147Z,33.53
2023-02-14T17:37:15.921Z,30.58
2023-02-14T17:39:42.712Z,31.90
2023-02-14T17:42:11.730Z,31.65
2023-02-14T17:44:38.917Z,33.30
2023-02-14T17:47:05.996Z,30.35
2023-02-14T17:49:32.797Z,32.50
2023-02-14T17:51:59.560Z,31.20
2023-02-14T17:54:26.334Z,33.72
2023-02-14T17:56:53.373Z,31.88
2023-02-14T17:59:20.346Z,32.40
2023-02-14T18:01:47.128Z,32.67
2023-02-14T18:04:13.963Z,30.98
2023-02-14T18:06:42.502Z,32.45
2023-02-14T18:09:09.261Z,32.92
2023-02-14T18:11:38.713Z,32.42
2023-02-14T18:14:05.351Z,31.73
2023-02-14T18:16:32.143Z,31.27
2023-02-14T18:19:02.987Z,30.50
2023-02-14T18:21:35.560Z,33.22
2023-02-14T18:24:03.766Z,31.80
2023-02-14T18:26:31.289Z,34.00
2023-02-14T18:28:58.806Z,33.28
2023-02-14T18:31:26.709Z,36.53
2023-02-14T18:33:53.789Z,33.08
2023-02-14T18:36:24.297Z,31.13
2023-02-14T18:38:51.155Z,31.40
2023-02-14T18:41:19.938Z,32.90
2023-02-14T18:43:47.378Z,31.83
2023-02-14T18:46:17.217Z,31.38
2023-02-14T18:48:44.455Z,30.55
2023-02-14T18:51:13.695Z,32.58
2023-02-14T18:53:41.081Z,30.55
2023-02-14T18:56:10.188Z,30.73
2023-02-14T18:58:37.251Z,31.63
2023-02-14T19:01:09.374Z,30.25
2023-02-14T19:03:36.460Z,31.63
2023-02-14T19:06:03.538Z,30.90
2023-02-14T19:08:35.058Z,31.75
2023-02-14T19:11:02.546Z,32.67
2023-02-14T19:13:32.157Z,32.03
2023-02-14T19:15:59.581Z,30.95
2023-02-14T19:18:26.821Z,31.98
2023-02-14T19:20:53.548Z,31.77
2023-02-14T19:23:20.230Z,31.33
2023-02-14T19:25:46.964Z,31.92
2023-02-14T19:28:13.836Z,31.75
2023-02-14T19:30:40.598Z,31.83
2023-02-14T19:33:07.369Z,31.02
2023-02-14T19:35:34.126Z,31.65
2023-02-14T19:38:03.471Z,30.52
2023-02-14T19:40:30.853Z,31.40
2023-02-14T19:42:57.852Z,30.92
2023-02-14T19:45:24.620Z,32.22
2023-02-14T19:47:51.271Z,31.70
2023-02-14T19:50:19.423Z,33.63
2023-02-14T19:52:47.142Z,31.42
2023-02-14T19:55:32.012Z,31.90
2023-02-14T19:57:58.769Z,30.90
2023-02-14T20:00:25.553Z,32.95
2023-02-14T20:02:52.473Z,31.48
2023-02-14T20:05:20.056Z,32.85
2023-02-14T20:07:49.228Z,32.95
2023-02-14T20:10:16.682Z,31.75
2023-02-14T20:12:43.374Z,33.30
2023-02-14T20:15:11.069Z,30.83
2023-02-14T20:17:38.112Z,32.45
2023-02-14T20:20:06.086Z,33.20
2023-02-14T20:22:32.812Z,31.35
2023-02-14T20:24:59.951Z,33.20
2023-02-14T20:27:26.818Z,31.08
2023-02-14T20:29:53.854Z,32.00
2023-02-14T20:32:20.749Z,31.00
2023-02-14T20:34:48.020Z,33.58
2023-02-14T20:37:14.702Z,32.03
2023-02-14T20:39:41.721Z,29.95
2023-02-14T20:42:08.562Z,32.05
2023-02-14T20:44:35.639Z,32.72
2023-02-14T20:47:02.476Z,31.27
2023-02-14T20:49:31.055Z,31.33
2023-02-14T20:51:58.173Z,32.35
2023-02-14T20:54:26.379Z,31.05
2023-02-14T20:56:53.309Z,31.58
2023-02-14T20:59:26.792Z,32.35
2023-02-14T21:01:55.092Z,32.35
2023-02-14T21:04:22.272Z,31.58
2023-02-14T21:06:49.089Z,33.78
2023-02-14T21:09:18.690Z,32.85
2023-02-14T21:11:45.419Z,32.05
2023-02-14T21:14:12.502Z,35.63
2023-02-14T21:16:39.261Z,33.90
2023-02-14T21:19:06.003Z,34.40
2023-02-14T21:21:36.440Z,36.17
2023-02-14T21:24:06.872Z,35.08
2023-02-14T21:26:33.928Z,37.28
2023-02-14T21:29:01.566Z,34.75
2023-02-14T21:31:29.223Z,36.88
2023-02-14T21:33:58.922Z,33.25
2023-02-14T21:36:31.572Z,33.40
2023-02-14T21:39:00.255Z,36.92
2023-02-14T21:41:31.112Z,35.25
2023-02-14T21:44:00.008Z,34.33
2023-02-14T21:46:32.815Z,38.35
2023-02-14T21:49:23.741Z,38.53
2023-02-14T21:51:50.517Z,36.88
2023-02-14T21:54:17.577Z,37.55
2023-02-14T21:56:44.497Z,37.13
2023-02-14T21:59:11.969Z,37.95
2023-02-14T22:01:40.474Z,39.50
2023-02-14T22:04:09.515Z,38.33
2023-02-14T22:06:38.681Z,39.83
2023-02-14T22:09:06.287Z,39.67
2023-02-14T22:11:33.825Z,40.20
2023-02-14T22:14:01.161Z,40.53
2023-02-14T22:16:27.839Z,43.17
2023-02-14T22:18:54.589Z,43.47
2023-02-14T22:21:24.253Z,44.17
2023-02-14T22:23:51.529Z,46.05
2023-02-14T22:26:19.869Z,46.92
2023-02-14T22:28:48.115Z,46.97
2023-02-14T22:31:16.911Z,48.35
2023-02-14T22:33:43.756Z,47.05
2023-02-14T22:36:11.113Z,48.97
2023-02-14T22:38:38.694Z,49.15
2023-02-14T22:41:06.413Z,51.58
2023-02-14T22:43:33.613Z,51.03
2023-02-14T22:46:12.162Z,53.45
2023-02-14T22:48:40.175Z,52.40
2023-02-14T22:51:12.849Z,54.92
2023-02-14T22:53:39.736Z,55.70
2023-02-14T22:56:24.787Z,55.63
2023-02-14T22:58:56.072Z,55.83
2023-02-14T23:01:24.284Z,55.75
2023-02-14T23:03:56.821Z,54.67
2023-02-14T23:06:24.952Z,50.00
2023-02-14T23:08:52.391Z,49.60
2023-02-14T23:11:23.672Z,49.97
2023-02-14T23:14:09.259Z,48.67
2023-02-14T23:16:54.880Z,45.28
2023-02-14T23:19:46.374Z,44.85
2023-02-14T23:22:16.136Z,44.72
2023-02-14T23:24:42.961Z,45.22
2023-02-14T23:27:09.908Z,44.13
2023-02-14T23:29:37.341Z,46.78
2023-02-14T23:32:05.596Z,45.67
2023-02-14T23:34:34.629Z,45.30
2023-02-14T23:37:02.244Z,47.00
2023-02-14T23:39:32.471Z,43.55
2023-02-14T23:41:59.436Z,45.47
2023-02-14T23:44:28.447Z,46.38
2023-02-14T23:46:57.859Z,43.65
2023-02-14T23:49:25.536Z,43.95
2023-02-14T23:51:54.467Z,42.85
2023-02-14T23:54:22.381Z,43.35
2023-02-14T23:56:50.038Z,44.00
2023-02-14T23:59:17.309Z,43.58
